createdAt,value
2018-11-13T00:02:10.463Z,6.72
2018-11-13T00:04:40.344Z,5.92
2018-11-13T00:07:10.178Z,6.67
2018-11-13T00:09:55.195Z,6.25
2018-11-13T00:12:25.054Z,7.08
2018-11-13T00:14:55.076Z,6.25
2018-11-13T00:17:24.939Z,7.12
2018-11-13T00:19:54.871Z,7.08
2018-11-13T00:22:24.855Z,6.35
2018-11-13T00:24:54.788Z,7.05
2018-11-13T00:27:24.663Z,6.42
2018-11-13T00:29:54.613Z,6.35
2018-11-13T00:32:24.527Z,5.67
2018-11-13T00:34:54.361Z,6.87
2018-11-13T00:37:24.649Z,6.17
2018-11-13T00:39:54.894Z,7.10
2018-11-13T00:42:24.737Z,6.17
2018-11-13T00:44:54.655Z,7.03
2018-11-13T00:47:24.648Z,7.15
2018-11-13T00:49:54.487Z,7.72
2018-11-13T00:52:24.731Z,7.55
2018-11-13T00:54:55.013Z,6.72
2018-11-13T00:57:24.786Z,8.18
2018-11-13T00:59:55.592Z,5.80
2018-11-13T01:02:25.721Z,6.15
2018-11-13T01:04:55.973Z,6.03
2018-11-13T01:07:25.740Z,5.75
2018-11-13T01:09:56.157Z,5.60
2018-11-13T01:12:26.187Z,5.42
2018-11-13T01:14:56.036Z,5.22
2018-11-13T01:17:26.631Z,5.28
2018-11-13T01:19:57.351Z,4.60
2018-11-13T01:22:27.212Z,4.12
2018-11-13T01:24:57.268Z,5.40
2018-11-13T01:27:27.477Z,4.87
2018-11-13T01:29:58.622Z,5.58
2018-11-13T01:32:29.346Z,5.05
2018-11-13T01:34:59.201Z,5.08
2018-11-13T01:37:29.676Z,6.42
2018-11-13T01:40:00.714Z,5.37
2018-11-13T01:42:30.611Z,4.85
2018-11-13T01:45:00.937Z,3.87
2018-11-13T01:47:30.808Z,5.15
2018-11-13T01:50:00.766Z,5.40
2018-11-13T01:52:30.660Z,4.00
2018-11-13T01:55:00.532Z,2.77
2018-11-13T01:57:31.247Z,5.42
2018-11-13T02:00:01.546Z,4.03
2018-11-13T02:02:31.573Z,5.00
2018-11-13T02:05:01.429Z,5.70
2018-11-13T02:07:31.608Z,4.92
2018-11-13T02:10:01.544Z,3.85
2018-11-13T02:12:31.384Z,4.17
2018-11-13T02:15:01.445Z,6.05
2018-11-13T02:17:31.593Z,4.20
2018-11-13T02:20:01.552Z,4.90
2018-11-13T02:22:31.418Z,3.80
2018-11-13T02:25:01.388Z,4.10
2018-11-13T02:27:31.239Z,5.90
2018-11-13T02:30:01.129Z,4.72
2018-11-13T02:32:31.124Z,5.72
2018-11-13T02:35:00.981Z,4.03
2018-11-13T02:37:30.837Z,3.98
2018-11-13T02:40:00.707Z,4.05
2018-11-13T02:42:30.711Z,4.35
2018-11-13T02:45:00.563Z,5.00
2018-11-13T02:47:30.527Z,5.25
2018-11-13T02:50:00.514Z,3.22
2018-11-13T02:52:30.404Z,5.70
2018-11-13T02:55:00.252Z,3.62
2018-11-13T02:57:30.076Z,4.05
2018-11-13T03:00:00.156Z,4.10
2018-11-13T03:02:30.701Z,4.72
2018-11-13T03:05:00.554Z,4.20
2018-11-13T03:07:30.433Z,4.37
2018-11-13T03:10:00.270Z,4.45
2018-11-13T03:12:30.299Z,4.22
2018-11-13T03:15:00.188Z,3.50
2018-11-13T03:17:30.120Z,4.22
2018-11-13T03:20:00.051Z,4.17
2018-11-13T03:22:29.908Z,4.85
2018-11-13T03:24:59.786Z,4.08
2018-11-13T03:27:29.846Z,3.42
2018-11-13T03:29:59.744Z,4.15
2018-11-13T03:32:29.593Z,4.83
2018-11-13T03:34:59.414Z,3.67
2018-11-13T03:37:29.269Z,3.77
2018-11-13T03:39:59.507Z,4.20
2018-11-13T03:42:29.470Z,3.52
2018-11-13T03:44:59.562Z,4.15
2018-11-13T03:47:29.459Z,3.37
2018-11-13T03:49:59.316Z,3.25
2018-11-13T03:52:29.606Z,3.27
2018-11-13T03:54:59.449Z,3.52
2018-11-13T03:57:29.324Z,3.40
2018-11-13T03:59:59.211Z,4.67
2018-11-13T04:02:29.200Z,3.30
2018-11-13T04:04:59.092Z,3.27
2018-11-13T04:07:28.978Z,3.02
2018-11-13T04:09:58.935Z,3.33
2018-11-13T04:12:28.808Z,2.83
2018-11-13T04:14:58.840Z,3.47
2018-11-13T04:17:28.684Z,3.25
2018-11-13T04:19:58.589Z,3.00
2018-11-13T04:22:28.473Z,2.70
2018-11-13T04:24:58.320Z,3.17
2018-11-13T04:27:28.317Z,3.20
2018-11-13T04:29:58.343Z,3.75
2018-11-13T04:32:28.509Z,4.30
2018-11-13T04:34:58.355Z,4.35
2018-11-13T04:37:28.380Z,5.12
2018-11-13T04:39:58.223Z,4.92
2018-11-13T04:42:28.089Z,4.33
2018-11-13T04:44:58.092Z,4.00
2018-11-13T04:47:27.943Z,4.47
2018-11-13T04:49:57.788Z,5.22
2018-11-13T04:52:27.636Z,4.53
2018-11-13T04:54:57.490Z,4.90
2018-11-13T04:57:27.617Z,4.42
2018-11-13T04:59:57.477Z,3.58
2018-11-13T05:02:27.334Z,4.03
2018-11-13T05:04:57.175Z,4.05
2018-11-13T05:07:27.364Z,4.05
2018-11-13T05:09:57.258Z,3.85
2018-11-13T05:12:27.060Z,3.87
2018-11-13T05:14:56.978Z,3.50
2018-11-13T05:17:26.992Z,3.47
2018-11-13T05:19:57.168Z,2.87
2018-11-13T05:22:27.035Z,2.98
2018-11-13T05:24:56.952Z,3.17
2018-11-13T05:27:26.789Z,2.83
2018-11-13T05:29:56.783Z,3.10
2018-11-13T05:32:26.605Z,2.30
2018-11-13T05:34:56.438Z,3.00
2018-11-13T05:37:26.830Z,3.05
2018-11-13T05:39:56.758Z,3.25
2018-11-13T05:42:26.719Z,2.50
2018-11-13T05:44:56.588Z,3.10
2018-11-13T05:47:26.555Z,3.05
2018-11-13T05:49:56.546Z,2.87
2018-11-13T05:52:26.414Z,2.37
2018-11-13T05:54:56.236Z,2.60
2018-11-13T05:57:26.055Z,2.60
2018-11-13T05:59:55.993Z,2.65
2018-11-13T06:02:25.966Z,3.37
2018-11-13T06:04:55.819Z,3.17
2018-11-13T06:07:26.101Z,3.33
2018-11-13T06:09:56.071Z,3.25
2018-11-13T06:12:25.924Z,3.08
2018-11-13T06:14:55.824Z,2.12
2018-11-13T06:17:25.845Z,3.17
2018-11-13T06:19:55.915Z,3.17
2018-11-13T06:22:25.987Z,2.50
2018-11-13T06:24:56.154Z,2.70
2018-11-13T06:27:26.405Z,2.83
2018-11-13T06:29:56.755Z,2.10
2018-11-13T06:32:26.641Z,3.25
2018-11-13T06:34:56.804Z,2.40
2018-11-13T06:37:26.701Z,2.50
2018-11-13T06:39:56.803Z,3.02
2018-11-13T06:42:26.824Z,2.55
2018-11-13T06:44:56.692Z,2.08
2018-11-13T06:47:26.567Z,2.50
2018-11-13T06:49:56.488Z,2.42
2018-11-13T06:52:26.522Z,3.50
2018-11-13T06:54:58.095Z,3.15
2018-11-13T06:57:28.494Z,3.45
2018-11-13T06:59:58.680Z,3.12
2018-11-13T07:02:28.581Z,3.55
2018-11-13T07:04:58.881Z,2.77
2018-11-13T07:07:28.961Z,2.85
2018-11-13T07:09:58.992Z,2.10
2018-11-13T07:12:29.148Z,2.83
2018-11-13T07:14:59.043Z,2.50
2018-11-13T07:17:28.945Z,2.90
2018-11-13T07:19:58.804Z,2.17
2018-11-13T07:22:29.073Z,2.25
2018-11-13T07:24:58.968Z,2.35
2018-11-13T07:27:29.069Z,2.65
2018-11-13T07:29:59.490Z,2.65
2018-11-13T07:32:29.387Z,3.37
2018-11-13T07:34:59.314Z,2.85
2018-11-13T07:37:29.215Z,2.25
2018-11-13T07:39:59.349Z,3.12
2018-11-13T07:42:29.255Z,2.95
2018-11-13T07:44:59.573Z,2.58
2018-11-13T07:47:29.645Z,4.47
2018-11-13T07:49:59.604Z,3.20
2018-11-13T07:52:29.574Z,3.37
2018-11-13T07:54:59.494Z,2.80
2018-11-13T07:57:29.372Z,3.20
2018-11-13T07:59:59.278Z,2.50
2018-11-13T08:02:29.420Z,3.17
2018-11-13T08:04:59.489Z,2.70
2018-11-13T08:07:29.342Z,2.52
2018-11-13T08:09:59.621Z,3.83
2018-11-13T08:12:29.569Z,2.65
2018-11-13T08:14:59.770Z,2.55
2018-11-13T08:17:29.929Z,2.92
2018-11-13T08:19:59.805Z,2.70
2018-11-13T08:22:29.720Z,2.70
2018-11-13T08:24:59.785Z,2.15
2018-11-13T08:27:29.921Z,2.80
2018-11-13T08:29:59.893Z,3.17
2018-11-13T08:32:29.768Z,2.80
2018-11-13T08:34:59.831Z,2.62
2018-11-13T08:37:29.520Z,3.47
2018-11-13T08:39:59.520Z,2.25
2018-11-13T08:42:29.785Z,2.22
2018-11-13T08:44:59.697Z,2.98
2018-11-13T08:47:29.851Z,2.08
2018-11-13T08:50:00.349Z,2.90
2018-11-13T08:52:30.212Z,2.15
2018-11-13T08:55:00.107Z,3.02
2018-11-13T08:57:30.002Z,2.30
2018-11-13T08:59:59.858Z,2.40
2018-11-13T09:02:29.944Z,2.10
2018-11-13T09:04:59.930Z,3.22
2018-11-13T09:07:30.581Z,2.77
2018-11-13T09:10:00.527Z,2.00
2018-11-13T09:12:30.633Z,2.20
2018-11-13T09:15:00.458Z,2.17
2018-11-13T09:17:30.363Z,4.25
2018-11-13T09:20:00.576Z,2.70
2018-11-13T09:22:30.491Z,2.10
2018-11-13T09:25:00.440Z,3.05
2018-11-13T09:27:30.302Z,3.00
2018-11-13T09:30:00.258Z,2.77
2018-11-13T09:32:30.472Z,2.60
2018-11-13T09:35:00.790Z,2.70
2018-11-13T09:37:31.054Z,2.42
2018-11-13T09:40:01.044Z,1.95
2018-11-13T09:42:30.964Z,2.05
2018-11-13T09:45:00.972Z,2.20
2018-11-13T09:47:30.751Z,1.90
2018-11-13T09:50:00.794Z,2.37
2018-11-13T09:52:30.671Z,2.95
2018-11-13T09:55:00.521Z,2.40
2018-11-13T09:57:30.365Z,2.60
2018-11-13T10:00:00.267Z,1.98
2018-11-13T10:02:30.588Z,2.15
2018-11-13T10:05:00.753Z,2.02
2018-11-13T10:07:29.913Z,2.40
2018-11-13T10:09:59.767Z,1.67
2018-11-13T10:12:30.028Z,2.33
2018-11-13T10:14:59.943Z,2.10
2018-11-13T10:17:29.869Z,2.00
2018-11-13T10:19:59.947Z,1.72
2018-11-13T10:22:30.171Z,1.90
2018-11-13T10:25:00.165Z,1.52
2018-11-13T10:27:29.983Z,2.08
2018-11-13T10:30:00.360Z,2.02
2018-11-13T10:32:30.181Z,1.60
2018-11-13T10:35:00.081Z,1.72
2018-11-13T10:37:29.956Z,1.72
2018-11-13T10:39:59.896Z,1.20
2018-11-13T10:42:29.829Z,1.57
2018-11-13T10:44:59.808Z,1.50
2018-11-13T10:47:29.773Z,1.82
2018-11-13T10:49:59.594Z,1.37
2018-11-13T10:52:29.464Z,1.50
2018-11-13T10:54:59.409Z,1.40
2018-11-13T10:57:29.696Z,1.47
2018-11-13T10:59:59.580Z,2.37
2018-11-13T11:02:35.025Z,1.72
2018-11-13T11:05:08.798Z,2.05
2018-11-13T11:07:38.656Z,1.62
2018-11-13T11:10:08.775Z,1.90
2018-11-13T11:12:38.750Z,1.80
2018-11-13T11:15:09.249Z,1.47
2018-11-13T11:17:39.452Z,2.00
2018-11-13T11:20:11.244Z,1.75
2018-11-13T11:22:41.896Z,1.47
2018-11-13T11:25:12.986Z,1.80
2018-11-13T11:27:42.782Z,1.82
2018-11-13T11:30:14.279Z,1.40
2018-11-13T11:32:44.175Z,1.32
2018-11-13T11:35:14.038Z,1.55
2018-11-13T11:37:43.994Z,1.87
2018-11-13T11:40:13.894Z,1.32
2018-11-13T11:42:44.039Z,1.22
2018-11-13T11:45:14.671Z,1.07
2018-11-13T11:47:44.784Z,1.85
2018-11-13T11:50:15.412Z,1.37
2018-11-13T11:52:45.593Z,1.30
2018-11-13T11:55:15.496Z,1.80
2018-11-13T11:57:45.382Z,1.47
2018-11-13T12:00:18.770Z,1.10
2018-11-13T12:02:48.904Z,1.15
2018-11-13T12:05:18.737Z,1.30
2018-11-13T12:07:48.567Z,1.42
2018-11-13T12:10:18.433Z,1.07
2018-11-13T12:12:48.274Z,1.12
2018-11-13T12:15:18.139Z,1.55
2018-11-13T12:17:48.088Z,1.45
2018-11-13T12:20:18.008Z,1.30
2018-11-13T12:22:47.935Z,1.62
2018-11-13T12:25:20.162Z,1.50
2018-11-13T12:27:48.962Z,1.32
2018-11-13T12:30:22.375Z,1.35
2018-11-13T12:32:52.668Z,1.20
2018-11-13T12:35:23.440Z,1.25
2018-11-13T12:37:53.386Z,1.52
2018-11-13T12:40:24.564Z,1.15
2018-11-13T12:42:54.473Z,1.55
2018-11-13T12:45:24.321Z,1.45
2018-11-13T12:47:54.194Z,1.27
2018-11-13T12:50:24.075Z,1.25
2018-11-13T12:52:54.038Z,1.07
2018-11-13T12:55:24.135Z,0.85
2018-11-13T12:57:54.395Z,1.37
2018-11-13T13:00:25.810Z,1.30
2018-11-13T13:02:55.623Z,1.00
2018-11-13T13:05:25.555Z,1.15
2018-11-13T13:07:55.614Z,1.17
2018-11-13T13:10:25.903Z,1.40
2018-11-13T13:12:56.001Z,1.30
2018-11-13T13:15:25.890Z,1.35
2018-11-13T13:17:56.067Z,0.85
2018-11-13T13:20:26.948Z,0.90
2018-11-13T13:22:57.041Z,1.25
2018-11-13T13:25:26.893Z,1.30
2018-11-13T13:27:57.316Z,1.12
2018-11-13T13:30:27.736Z,1.40
2018-11-13T13:32:57.613Z,0.90
2018-11-13T13:35:33.840Z,1.10
2018-11-13T13:38:03.664Z,1.00
2018-11-13T13:40:33.657Z,0.90
2018-11-13T13:43:04.600Z,1.52
2018-11-13T13:45:34.445Z,0.98
2018-11-13T13:48:04.282Z,1.00
2018-11-13T13:50:34.138Z,1.00
2018-11-13T13:53:04.718Z,0.90
2018-11-13T13:55:34.641Z,0.82
2018-11-13T13:58:04.822Z,1.05
2018-11-13T14:00:34.852Z,0.93
2018-11-13T14:03:05.608Z,1.10
2018-11-13T14:05:36.085Z,0.98
2018-11-13T14:08:06.813Z,1.22
2018-11-13T14:10:36.754Z,1.10
2018-11-13T14:13:06.601Z,1.02
2018-11-13T14:15:36.605Z,1.10
2018-11-13T14:18:06.396Z,0.80
2018-11-13T14:20:36.235Z,1.17
2018-11-13T14:23:06.133Z,1.10
2018-11-13T14:25:36.080Z,1.47
2018-11-13T14:28:05.977Z,1.10
2018-11-13T14:30:37.355Z,1.25
2018-11-13T14:33:08.624Z,1.70
2018-11-13T14:35:38.589Z,1.77
2018-11-13T14:38:08.608Z,1.27
2018-11-13T14:40:46.021Z,1.52
2018-11-13T14:43:16.808Z,1.42
2018-11-13T14:45:46.666Z,0.90
2018-11-13T14:48:16.599Z,1.70
2018-11-13T14:50:46.453Z,1.20
2018-11-13T14:53:16.509Z,1.25
2018-11-13T14:55:46.737Z,1.30
2018-11-13T14:58:17.536Z,1.42
2018-11-13T15:00:47.675Z,1.98
2018-11-13T15:03:18.095Z,1.30
2018-11-13T15:05:47.946Z,1.50
2018-11-13T15:08:19.332Z,1.10
2018-11-13T15:10:52.645Z,1.35
2018-11-13T15:13:24.128Z,1.37
2018-11-13T15:15:54.231Z,1.27
2018-11-13T15:18:24.176Z,1.27
2018-11-13T15:20:54.061Z,1.12
2018-11-13T15:23:24.048Z,1.30
2018-11-13T15:25:53.886Z,1.65
2018-11-13T15:28:23.823Z,1.15
2018-11-13T15:30:54.066Z,1.10
2018-11-13T15:33:24.851Z,1.30
2018-11-13T15:35:55.114Z,1.37
2018-11-13T15:38:24.968Z,1.25
2018-11-13T15:40:55.000Z,1.35
2018-11-13T15:43:25.750Z,1.07
2018-11-13T15:45:56.108Z,1.55
2018-11-13T15:48:26.109Z,1.30
2018-11-13T15:50:56.014Z,1.72
2018-11-13T15:53:26.083Z,1.80
2018-11-13T15:55:56.563Z,1.70
2018-11-13T15:58:26.528Z,1.40
2018-11-13T16:00:57.210Z,1.30
2018-11-13T16:03:29.506Z,1.47
2018-11-13T16:05:59.449Z,2.50
2018-11-13T16:08:29.284Z,1.85
2018-11-13T16:10:59.108Z,1.55
2018-11-13T16:13:29.303Z,1.47
2018-11-13T16:15:59.151Z,1.40
2018-11-13T16:18:30.024Z,1.55
2018-11-13T16:20:59.853Z,1.27
2018-11-13T16:23:29.717Z,2.40
2018-11-13T16:25:59.729Z,1.90
2018-11-13T16:28:32.101Z,3.15
2018-11-13T16:31:02.026Z,3.08
2018-11-13T16:33:32.289Z,3.55
2018-11-13T16:36:02.634Z,2.52
2018-11-13T16:38:38.680Z,2.25
2018-11-13T16:41:08.503Z,1.92
2018-11-13T16:43:38.440Z,1.75
2018-11-13T16:46:08.324Z,1.85
2018-11-13T16:48:38.631Z,2.22
2018-11-13T16:51:08.818Z,2.90
2018-11-13T16:53:44.158Z,1.95
2018-11-13T16:56:14.816Z,2.42
2018-11-13T16:58:44.768Z,3.95
2018-11-13T17:01:14.895Z,3.42
2018-11-13T17:03:44.855Z,3.12
2018-11-13T17:06:14.807Z,3.27
2018-11-13T17:08:44.808Z,2.40
2018-11-13T17:11:15.115Z,2.35
2018-11-13T17:13:45.151Z,10.30
2018-11-13T17:16:15.178Z,3.42
2018-11-13T17:18:45.502Z,7.12
2018-11-13T17:21:15.390Z,5.22
2018-11-13T17:23:45.332Z,5.62
2018-11-13T17:26:15.122Z,3.83
2018-11-13T17:28:45.446Z,3.67
2018-11-13T17:31:15.655Z,3.15
2018-11-13T17:33:46.182Z,3.25
2018-11-13T17:36:16.053Z,3.98
2018-11-13T17:38:45.931Z,4.80
2018-11-13T17:41:15.818Z,4.17
2018-11-13T17:43:45.952Z,3.25
2018-11-13T17:46:16.172Z,3.47
2018-11-13T17:48:46.083Z,3.90
2018-11-13T17:51:16.614Z,2.65
2018-11-13T17:53:46.621Z,4.30
2018-11-13T17:56:16.831Z,3.08
2018-11-13T17:58:46.942Z,2.83
2018-11-13T18:01:17.340Z,3.95
2018-11-13T18:03:47.520Z,5.03
2018-11-13T18:06:17.395Z,3.22
2018-11-13T18:08:47.870Z,2.92
2018-11-13T18:11:18.072Z,2.80
2018-11-13T18:13:47.962Z,3.65
2018-11-13T18:16:17.921Z,3.47
2018-11-13T18:18:47.915Z,2.98
2018-11-13T18:21:18.108Z,3.42
2018-11-13T18:23:48.067Z,3.20
2018-11-13T18:26:18.192Z,4.22
2018-11-13T18:28:48.213Z,3.65
2018-11-13T18:31:17.997Z,2.45
2018-11-13T18:33:48.012Z,4.80
2018-11-13T18:36:17.942Z,4.00
2018-11-13T18:38:48.156Z,3.08
2018-11-13T18:44:10.017Z,3.30
2018-11-13T18:46:39.962Z,3.12
2018-11-13T18:49:09.814Z,3.42
2018-11-13T18:51:39.960Z,3.95
2018-11-13T18:54:10.614Z,3.70
2018-11-13T18:56:40.861Z,3.70
2018-11-13T18:59:10.769Z,3.95
2018-11-13T19:01:40.686Z,7.05
2018-11-13T19:04:10.564Z,7.87
2018-11-13T19:06:40.409Z,4.95
2018-11-13T19:09:11.917Z,3.30
2018-11-13T19:11:41.883Z,3.22
2018-11-13T19:14:12.034Z,3.17
2018-11-13T19:16:42.605Z,4.10
2018-11-13T19:19:12.434Z,4.40
2018-11-13T19:21:42.316Z,5.08
2018-11-13T19:24:12.246Z,3.75
2018-11-13T19:26:42.238Z,3.10
2018-11-13T19:29:12.153Z,4.08
2018-11-13T19:31:42.068Z,3.35
2018-11-13T19:34:12.011Z,3.90
2018-11-13T19:36:41.924Z,3.95
2018-11-13T19:39:12.655Z,5.75
2018-11-13T19:41:42.928Z,3.37
2018-11-13T19:44:13.163Z,4.62
2018-11-13T19:46:43.088Z,3.27
2018-11-13T19:49:12.982Z,3.70
2018-11-13T19:51:43.620Z,3.83
2018-11-13T19:54:13.791Z,6.15
2018-11-13T19:56:43.664Z,6.33
2018-11-13T19:59:14.895Z,3.80
2018-11-13T20:01:45.959Z,3.80
2018-11-13T20:04:16.229Z,4.60
2018-11-13T20:06:46.431Z,4.10
2018-11-13T20:09:16.961Z,3.62
2018-11-13T20:11:46.781Z,3.40
2018-11-13T20:14:16.615Z,5.28
2018-11-13T20:16:46.511Z,4.25
2018-11-13T20:19:16.392Z,4.87
2018-11-13T20:21:46.355Z,5.17
2018-11-13T20:24:16.187Z,4.47
2018-11-13T20:26:46.143Z,3.52
2018-11-13T20:29:17.468Z,4.42
2018-11-13T20:31:47.755Z,3.92
2018-11-13T20:34:17.621Z,2.90
2018-11-13T20:36:47.503Z,3.60
2018-11-13T20:39:17.397Z,3.70
2018-11-13T20:41:47.295Z,3.70
2018-11-13T20:44:17.273Z,3.83
2018-11-13T20:46:47.157Z,3.70
2018-11-13T20:49:17.144Z,4.42
2018-11-13T20:51:47.101Z,3.58
2018-11-13T20:54:16.972Z,4.00
2018-11-13T20:56:46.847Z,3.00
2018-11-13T20:59:16.808Z,3.62
2018-11-13T21:01:46.671Z,5.33
2018-11-13T21:04:16.656Z,6.03
2018-11-13T21:06:46.499Z,5.65
2018-11-13T21:09:16.384Z,6.17
2018-11-13T21:11:46.226Z,5.22
2018-11-13T21:14:16.195Z,5.25
2018-11-13T21:16:46.132Z,4.83
2018-11-13T21:19:15.889Z,4.95
2018-11-13T21:21:46.007Z,4.40
2018-11-13T21:24:15.871Z,5.10
2018-11-13T21:26:45.746Z,5.58
2018-11-13T21:29:15.784Z,6.47
2018-11-13T21:31:46.016Z,5.78
2018-11-13T21:34:16.535Z,6.33
2018-11-13T21:36:46.485Z,5.95
2018-11-13T21:39:16.331Z,6.12
2018-11-13T21:41:46.586Z,6.22
2018-11-13T21:44:16.799Z,6.00
2018-11-13T21:46:47.009Z,6.17
2018-11-13T21:49:16.916Z,5.67
2018-11-13T21:51:47.078Z,6.00
2018-11-13T21:54:16.917Z,5.75
2018-11-13T21:56:46.786Z,5.55
2018-11-13T21:59:16.645Z,5.42
2018-11-13T22:01:46.787Z,4.90
2018-11-13T22:04:16.688Z,4.60
2018-11-13T22:06:48.146Z,4.58
2018-11-13T22:09:18.008Z,4.35
2018-11-13T22:11:47.895Z,4.72
2018-11-13T22:14:18.176Z,4.33
2018-11-13T22:16:47.694Z,4.20
2018-11-13T22:19:17.494Z,4.47
2018-11-13T22:21:47.675Z,5.15
2018-11-13T22:24:17.874Z,3.98
2018-11-13T22:26:47.825Z,3.85
2018-11-13T22:29:18.287Z,4.30
2018-11-13T22:31:48.134Z,4.05
2018-11-13T22:34:17.990Z,4.87
2018-11-13T22:36:47.998Z,3.92
2018-11-13T22:39:17.889Z,3.87
2018-11-13T22:41:47.814Z,5.55
2018-11-13T22:44:17.816Z,5.12
2018-11-13T22:46:47.947Z,5.22
2018-11-13T22:49:18.012Z,4.97
2018-11-13T22:51:47.948Z,5.05
2018-11-13T22:54:17.775Z,5.20
2018-11-13T22:56:48.064Z,4.80
2018-11-13T22:59:17.930Z,4.58
2018-11-13T23:01:47.953Z,5.75
2018-11-13T23:04:18.021Z,5.03
2018-11-13T23:06:47.890Z,7.10
2018-11-13T23:09:17.780Z,6.85
2018-11-13T23:11:47.683Z,7.10
2018-11-13T23:14:17.724Z,5.65
2018-11-13T23:16:47.560Z,6.65
2018-11-13T23:19:17.496Z,5.85
2018-11-13T23:21:47.449Z,6.62
2018-11-13T23:24:17.323Z,6.37
2018-11-13T23:26:47.237Z,6.90
2018-11-13T23:29:17.125Z,5.95
2018-11-13T23:31:47.010Z,6.08
2018-11-13T23:34:16.855Z,6.40
2018-11-13T23:36:46.729Z,6.75
2018-11-13T23:39:16.816Z,5.83
2018-11-13T23:41:46.725Z,7.03
2018-11-13T23:44:16.966Z,6.53
2018-11-13T23:46:46.786Z,5.58
2018-11-13T23:49:16.772Z,6.10
2018-11-13T23:51:46.671Z,6.42
2018-11-13T23:54:16.756Z,7.40
2018-11-13T23:56:46.837Z,5.83
2018-11-13T23:59:16.884Z,6.58
